sensor_id;sensor_type;location;lat;lon;timestamp;P1;durP1;ratioP1;P2;durP2;ratioP2
54201;SDS011;40108;53.152;5.844;2023-04-06T00:01:09;11.02;;;5.90;;
54201;SDS011;40108;53.152;5.844;2023-04-06T00:03:35;13.15;;;6.75;;
54201;SDS011;40108;53.152;5.844;2023-04-06T00:06:01;9.40;;;6.10;;
54201;SDS011;40108;53.152;5.844;2023-04-06T00:08:27;11.60;;;6.60;;
54201;SDS011;40108;53.152;5.844;2023-04-06T00:10:53;9.05;;;6.38;;
54201;SDS011;40108;53.152;5.844;2023-04-06T00:13:20;9.48;;;5.90;;
54201;SDS011;40108;53.152;5.844;2023-04-06T00:15:46;9.82;;;6.40;;
54201;SDS011;40108;53.152;5.844;2023-04-06T00:18:11;8.90;;;6.00;;
54201;SDS011;40108;53.152;5.844;2023-04-06T00:20:37;8.48;;;5.88;;
54201;SDS011;40108;53.152;5.844;2023-04-06T00:23:03;9.80;;;6.18;;
54201;SDS011;40108;53.152;5.844;2023-04-06T00:25:29;9.75;;;6.45;;
54201;SDS011;40108;53.152;5.844;2023-04-06T00:27:55;9.25;;;5.80;;
54201;SDS011;40108;53.152;5.844;2023-04-06T00:30:21;12.32;;;6.57;;
54201;SDS011;40108;53.152;5.844;2023-04-06T00:32:47;10.18;;;6.05;;
54201;SDS011;40108;53.152;5.844;2023-04-06T00:35:13;10.95;;;5.68;;
54201;SDS011;40108;53.152;5.844;2023-04-06T00:37:40;10.98;;;6.07;;
54201;SDS011;40108;53.152;5.844;2023-04-06T00:40:06;11.75;;;5.90;;
54201;SDS011;40108;53.152;5.844;2023-04-06T00:42:32;9.70;;;5.53;;
54201;SDS011;40108;53.152;5.844;2023-04-06T00:44:59;11.40;;;6.22;;
54201;SDS011;40108;53.152;5.844;2023-04-06T00:47:25;8.73;;;5.68;;
54201;SDS011;40108;53.152;5.844;2023-04-06T00:49:52;8.48;;;4.90;;
54201;SDS011;40108;53.152;5.844;2023-04-06T00:52:18;9.27;;;5.90;;
54201;SDS011;40108;53.152;5.844;2023-04-06T00:54:45;10.05;;;5.70;;
54201;SDS011;40108;53.152;5.844;2023-04-06T00:57:11;8.80;;;5.43;;
54201;SDS011;40108;53.152;5.844;2023-04-06T00:59:37;7.65;;;5.75;;
54201;SDS011;40108;53.152;5.844;2023-04-06T01:02:03;8.68;;;5.20;;
54201;SDS011;40108;53.152;5.844;2023-04-06T01:04:29;11.20;;;5.85;;
54201;SDS011;40108;53.152;5.844;2023-04-06T01:06:56;9.15;;;5.40;;
54201;SDS011;40108;53.152;5.844;2023-04-06T01:09:22;9.13;;;5.30;;
54201;SDS011;40108;53.152;5.844;2023-04-06T01:11:47;8.20;;;5.13;;
54201;SDS011;40108;53.152;5.844;2023-04-06T01:14:13;7.88;;;5.50;;
54201;SDS011;40108;53.152;5.844;2023-04-06T01:16:40;7.63;;;5.57;;
54201;SDS011;40108;53.152;5.844;2023-04-06T01:19:09;8.20;;;6.13;;
54201;SDS011;40108;53.152;5.844;2023-04-06T01:21:37;8.95;;;5.45;;
54201;SDS011;40108;53.152;5.844;2023-04-06T01:24:03;8.27;;;6.22;;
54201;SDS011;40108;53.152;5.844;2023-04-06T01:26:30;9.10;;;5.22;;
54201;SDS011;40108;53.152;5.844;2023-04-06T01:28:57;8.10;;;6.38;;
54201;SDS011;40108;53.152;5.844;2023-04-06T01:31:23;9.50;;;5.53;;
54201;SDS011;40108;53.152;5.844;2023-04-06T01:33:48;7.95;;;5.45;;
54201;SDS011;40108;53.152;5.844;2023-04-06T01:36:14;7.57;;;5.20;;
54201;SDS011;40108;53.152;5.844;2023-04-06T01:38:40;7.43;;;5.00;;
54201;SDS011;40108;53.152;5.844;2023-04-06T01:41:06;6.97;;;5.00;;
54201;SDS011;40108;53.152;5.844;2023-04-06T01:43:32;10.35;;;5.75;;
54201;SDS011;40108;53.152;5.844;2023-04-06T01:45:58;8.75;;;5.30;;
54201;SDS011;40108;53.152;5.844;2023-04-06T01:48:24;7.18;;;5.57;;
54201;SDS011;40108;53.152;5.844;2023-04-06T01:50:50;8.63;;;5.80;;
54201;SDS011;40108;53.152;5.844;2023-04-06T01:53:16;10.32;;;5.35;;
54201;SDS011;40108;53.152;5.844;2023-04-06T01:55:42;7.68;;;5.38;;
54201;SDS011;40108;53.152;5.844;2023-04-06T01:58:07;9.50;;;6.18;;
54201;SDS011;40108;53.152;5.844;2023-04-06T02:00:33;7.03;;;5.75;;
54201;SDS011;40108;53.152;5.844;2023-04-06T02:02:59;7.35;;;4.88;;
54201;SDS011;40108;53.152;5.844;2023-04-06T02:05:25;12.50;;;5.80;;
54201;SDS011;40108;53.152;5.844;2023-04-06T02:07:51;7.88;;;6.00;;
54201;SDS011;40108;53.152;5.844;2023-04-06T02:10:17;10.63;;;6.18;;
54201;SDS011;40108;53.152;5.844;2023-04-06T02:12:43;9.95;;;5.93;;
54201;SDS011;40108;53.152;5.844;2023-04-06T02:15:08;9.50;;;5.45;;
54201;SDS011;40108;53.152;5.844;2023-04-06T02:17:35;8.35;;;5.65;;
54201;SDS011;40108;53.152;5.844;2023-04-06T02:20:00;12.05;;;6.15;;
54201;SDS011;40108;53.152;5.844;2023-04-06T02:22:26;7.28;;;5.32;;
54201;SDS011;40108;53.152;5.844;2023-04-06T02:24:52;9.52;;;5.85;;
54201;SDS011;40108;53.152;5.844;2023-04-06T02:27:17;8.13;;;5.85;;
54201;SDS011;40108;53.152;5.844;2023-04-06T02:29:43;7.93;;;5.78;;
54201;SDS011;40108;53.152;5.844;2023-04-06T02:32:09;11.23;;;5.97;;
54201;SDS011;40108;53.152;5.844;2023-04-06T02:34:35;8.77;;;6.18;;
54201;SDS011;40108;53.152;5.844;2023-04-06T02:37:00;9.43;;;6.30;;
54201;SDS011;40108;53.152;5.844;2023-04-06T02:39:26;8.07;;;6.05;;
54201;SDS011;40108;53.152;5.844;2023-04-06T02:41:52;7.70;;;5.72;;
54201;SDS011;40108;53.152;5.844;2023-04-06T02:44:18;7.45;;;5.68;;
54201;SDS011;40108;53.152;5.844;2023-04-06T02:46:43;8.23;;;6.03;;
54201;SDS011;40108;53.152;5.844;2023-04-06T02:49:09;8.73;;;6.03;;
54201;SDS011;40108;53.152;5.844;2023-04-06T02:51:35;8.23;;;6.18;;
54201;SDS011;40108;53.152;5.844;2023-04-06T02:54:00;9.20;;;6.20;;
54201;SDS011;40108;53.152;5.844;2023-04-06T02:56:26;10.68;;;5.88;;
54201;SDS011;40108;53.152;5.844;2023-04-06T02:58:52;8.30;;;6.47;;
54201;SDS011;40108;53.152;5.844;2023-04-06T03:01:18;13.93;;;6.03;;
54201;SDS011;40108;53.152;5.844;2023-04-06T03:03:43;10.40;;;6.13;;
54201;SDS011;40108;53.152;5.844;2023-04-06T03:06:09;8.55;;;6.38;;
54201;SDS011;40108;53.152;5.844;2023-04-06T03:08:35;7.97;;;6.35;;
54201;SDS011;40108;53.152;5.844;2023-04-06T03:11:01;10.48;;;6.32;;
54201;SDS011;40108;53.152;5.844;2023-04-06T03:13:27;9.75;;;5.85;;
54201;SDS011;40108;53.152;5.844;2023-04-06T03:15:52;9.02;;;6.32;;
54201;SDS011;40108;53.152;5.844;2023-04-06T03:18:20;9.85;;;5.88;;
54201;SDS011;40108;53.152;5.844;2023-04-06T03:20:48;8.90;;;6.43;;
54201;SDS011;40108;53.152;5.844;2023-04-06T03:23:14;12.15;;;7.13;;
54201;SDS011;40108;53.152;5.844;2023-04-06T03:25:39;8.57;;;6.35;;
54201;SDS011;40108;53.152;5.844;2023-04-06T03:28:05;8.82;;;6.13;;
54201;SDS011;40108;53.152;5.844;2023-04-06T03:30:31;7.32;;;6.10;;
54201;SDS011;40108;53.152;5.844;2023-04-06T03:32:56;9.57;;;6.40;;
54201;SDS011;40108;53.152;5.844;2023-04-06T03:35:22;7.68;;;5.95;;
54201;SDS011;40108;53.152;5.844;2023-04-06T03:37:49;8.30;;;6.28;;
54201;SDS011;40108;53.152;5.844;2023-04-06T03:40:15;10.95;;;6.18;;
54201;SDS011;40108;53.152;5.844;2023-04-06T03:42:41;9.63;;;6.70;;
54201;SDS011;40108;53.152;5.844;2023-04-06T03:45:07;9.07;;;6.20;;
54201;SDS011;40108;53.152;5.844;2023-04-06T03:47:33;10.80;;;6.57;;
54201;SDS011;40108;53.152;5.844;2023-04-06T03:49:58;9.13;;;7.05;;
54201;SDS011;40108;53.152;5.844;2023-04-06T03:52:24;10.05;;;6.70;;
54201;SDS011;40108;53.152;5.844;2023-04-06T03:54:51;8.95;;;6.25;;
54201;SDS011;40108;53.152;5.844;2023-04-06T03:57:17;12.82;;;7.18;;
54201;SDS011;40108;53.152;5.844;2023-04-06T03:59:43;12.98;;;7.15;;
54201;SDS011;40108;53.152;5.844;2023-04-06T04:02:08;14.50;;;10.15;;
54201;SDS011;40108;53.152;5.844;2023-04-06T04:04:34;13.60;;;8.63;;
54201;SDS011;40108;53.152;5.844;2023-04-06T04:07:00;12.75;;;7.57;;
54201;SDS011;40108;53.152;5.844;2023-04-06T04:09:25;9.05;;;6.95;;
54201;SDS011;40108;53.152;5.844;2023-04-06T04:11:51;11.25;;;8.00;;
54201;SDS011;40108;53.152;5.844;2023-04-06T04:14:17;9.43;;;7.60;;
54201;SDS011;40108;53.152;5.844;2023-04-06T04:16:42;12.52;;;8.15;;
54201;SDS011;40108;53.152;5.844;2023-04-06T04:19:08;14.07;;;6.82;;
54201;SDS011;40108;53.152;5.844;2023-04-06T04:21:41;8.43;;;6.97;;
54201;SDS011;40108;53.152;5.844;2023-04-06T04:24:09;11.40;;;7.70;;
54201;SDS011;40108;53.152;5.844;2023-04-06T04:26:35;10.40;;;7.45;;
54201;SDS011;40108;53.152;5.844;2023-04-06T04:29:01;9.77;;;7.13;;
54201;SDS011;40108;53.152;5.844;2023-04-06T04:31:27;12.02;;;6.88;;
54201;SDS011;40108;53.152;5.844;2023-04-06T04:33:52;10.13;;;7.10;;
54201;SDS011;40108;53.152;5.844;2023-04-06T04:36:18;9.52;;;7.47;;
54201;SDS011;40108;53.152;5.844;2023-04-06T04:38:44;10.68;;;7.10;;
54201;SDS011;40108;53.152;5.844;2023-04-06T04:41:09;11.77;;;7.00;;
54201;SDS011;40108;53.152;5.844;2023-04-06T04:43:35;10.30;;;7.72;;
54201;SDS011;40108;53.152;5.844;2023-04-06T04:46:01;10.63;;;8.15;;
54201;SDS011;40108;53.152;5.844;2023-04-06T04:48:27;13.82;;;7.90;;
54201;SDS011;40108;53.152;5.844;2023-04-06T04:50:52;13.85;;;8.05;;
54201;SDS011;40108;53.152;5.844;2023-04-06T04:53:20;10.75;;;7.80;;
54201;SDS011;40108;53.152;5.844;2023-04-06T04:55:45;10.32;;;8.00;;
54201;SDS011;40108;53.152;5.844;2023-04-06T04:58:11;9.70;;;7.47;;
54201;SDS011;40108;53.152;5.844;2023-04-06T05:00:41;11.98;;;8.15;;
54201;SDS011;40108;53.152;5.844;2023-04-06T05:03:07;10.85;;;8.25;;
54201;SDS011;40108;53.152;5.844;2023-04-06T05:05:34;12.48;;;7.88;;
54201;SDS011;40108;53.152;5.844;2023-04-06T05:08:01;13.95;;;7.55;;
54201;SDS011;40108;53.152;5.844;2023-04-06T05:10:26;13.82;;;8.20;;
54201;SDS011;40108;53.152;5.844;2023-04-06T05:12:52;9.00;;;6.95;;
54201;SDS011;40108;53.152;5.844;2023-04-06T05:15:18;9.82;;;8.10;;
54201;SDS011;40108;53.152;5.844;2023-04-06T05:17:44;9.70;;;7.07;;
54201;SDS011;40108;53.152;5.844;2023-04-06T05:20:09;9.82;;;7.53;;
54201;SDS011;40108;53.152;5.844;2023-04-06T05:22:35;11.10;;;8.40;;
54201;SDS011;40108;53.152;5.844;2023-04-06T05:25:02;14.32;;;8.77;;
54201;SDS011;40108;53.152;5.844;2023-04-06T05:27:28;10.75;;;8.43;;
54201;SDS011;40108;53.152;5.844;2023-04-06T05:29:54;12.18;;;8.73;;
54201;SDS011;40108;53.152;5.844;2023-04-06T05:32:20;12.77;;;8.65;;
54201;SDS011;40108;53.152;5.844;2023-04-06T05:34:49;12.40;;;9.30;;
54201;SDS011;40108;53.152;5.844;2023-04-06T05:37:15;18.85;;;12.80;;
54201;SDS011;40108;53.152;5.844;2023-04-06T05:39:41;13.45;;;10.65;;
54201;SDS011;40108;53.152;5.844;2023-04-06T05:42:07;17.23;;;10.07;;
54201;SDS011;40108;53.152;5.844;2023-04-06T05:44:32;13.35;;;9.93;;
54201;SDS011;40108;53.152;5.844;2023-04-06T05:46:58;12.75;;;9.25;;
54201;SDS011;40108;53.152;5.844;2023-04-06T05:49:24;11.05;;;6.85;;
54201;SDS011;40108;53.152;5.844;2023-04-06T05:51:50;12.85;;;8.35;;
54201;SDS011;40108;53.152;5.844;2023-04-06T05:54:15;14.77;;;7.70;;
54201;SDS011;40108;53.152;5.844;2023-04-06T05:56:41;12.73;;;9.18;;
54201;SDS011;40108;53.152;5.844;2023-04-06T05:59:07;14.77;;;8.45;;
54201;SDS011;40108;53.152;5.844;2023-04-06T06:01:33;14.38;;;8.80;;
54201;SDS011;40108;53.152;5.844;2023-04-06T06:04:00;12.93;;;7.95;;
54201;SDS011;40108;53.152;5.844;2023-04-06T06:06:27;13.27;;;8.32;;
54201;SDS011;40108;53.152;5.844;2023-04-06T06:08:53;12.23;;;9.02;;
54201;SDS011;40108;53.152;5.844;2023-04-06T06:11:20;12.85;;;8.98;;
54201;SDS011;40108;53.152;5.844;2023-04-06T06:13:46;13.88;;;8.63;;
54201;SDS011;40108;53.152;5.844;2023-04-06T06:16:12;12.38;;;8.50;;
54201;SDS011;40108;53.152;5.844;2023-04-06T06:18:37;10.93;;;7.53;;
54201;SDS011;40108;53.152;5.844;2023-04-06T06:21:03;9.57;;;7.47;;
54201;SDS011;40108;53.152;5.844;2023-04-06T06:23:29;14.32;;;8.57;;
54201;SDS011;40108;53.152;5.844;2023-04-06T06:25:55;14.43;;;9.30;;
54201;SDS011;40108;53.152;5.844;2023-04-06T06:28:23;12.77;;;8.98;;
54201;SDS011;40108;53.152;5.844;2023-04-06T06:30:50;13.70;;;9.55;;
54201;SDS011;40108;53.152;5.844;2023-04-06T06:33:16;14.43;;;9.15;;
54201;SDS011;40108;53.152;5.844;2023-04-06T06:35:42;12.43;;;8.75;;
54201;SDS011;40108;53.152;5.844;2023-04-06T06:38:09;13.05;;;9.65;;
54201;SDS011;40108;53.152;5.844;2023-04-06T06:40:34;15.57;;;10.85;;
54201;SDS011;40108;53.152;5.844;2023-04-06T06:43:00;12.25;;;9.45;;
54201;SDS011;40108;53.152;5.844;2023-04-06T06:45:26;12.18;;;9.38;;
54201;SDS011;40108;53.152;5.844;2023-04-06T06:47:51;12.95;;;8.90;;
54201;SDS011;40108;53.152;5.844;2023-04-06T06:50:17;16.33;;;8.63;;
54201;SDS011;40108;53.152;5.844;2023-04-06T06:52:43;13.60;;;8.82;;
54201;SDS011;40108;53.152;5.844;2023-04-06T06:55:09;12.80;;;8.75;;
54201;SDS011;40108;53.152;5.844;2023-04-06T06:57:35;11.95;;;7.95;;
54201;SDS011;40108;53.152;5.844;2023-04-06T07:00:01;11.82;;;8.45;;
54201;SDS011;40108;53.152;5.844;2023-04-06T07:02:30;12.48;;;8.73;;
54201;SDS011;40108;53.152;5.844;2023-04-06T07:04:55;20.35;;;8.95;;
54201;SDS011;40108;53.152;5.844;2023-04-06T07:07:22;11.02;;;7.88;;
54201;SDS011;40108;53.152;5.844;2023-04-06T07:09:47;10.73;;;7.40;;
54201;SDS011;40108;53.152;5.844;2023-04-06T07:12:13;12.75;;;8.35;;
54201;SDS011;40108;53.152;5.844;2023-04-06T07:14:39;13.70;;;8.32;;
54201;SDS011;40108;53.152;5.844;2023-04-06T07:17:05;16.13;;;7.88;;
54201;SDS011;40108;53.152;5.844;2023-04-06T07:19:31;13.52;;;7.50;;
54201;SDS011;40108;53.152;5.844;2023-04-06T07:21:57;13.95;;;8.68;;
54201;SDS011;40108;53.152;5.844;2023-04-06T07:24:22;14.15;;;8.98;;
54201;SDS011;40108;53.152;5.844;2023-04-06T07:26:48;13.48;;;8.43;;
54201;SDS011;40108;53.152;5.844;2023-04-06T07:29:14;12.43;;;9.15;;
54201;SDS011;40108;53.152;5.844;2023-04-06T07:31:39;15.85;;;9.57;;
54201;SDS011;40108;53.152;5.844;2023-04-06T07:34:05;18.05;;;9.60;;
54201;SDS011;40108;53.152;5.844;2023-04-06T07:36:31;13.07;;;9.05;;
54201;SDS011;40108;53.152;5.844;2023-04-06T07:38:57;13.52;;;8.65;;
54201;SDS011;40108;53.152;5.844;2023-04-06T07:41:22;12.93;;;8.38;;
54201;SDS011;40108;53.152;5.844;2023-04-06T07:43:49;14.75;;;9.57;;
54201;SDS011;40108;53.152;5.844;2023-04-06T07:46:14;13.55;;;8.68;;
54201;SDS011;40108;53.152;5.844;2023-04-06T07:48:40;11.52;;;8.48;;
54201;SDS011;40108;53.152;5.844;2023-04-06T07:51:06;11.68;;;9.30;;
54201;SDS011;40108;53.152;5.844;2023-04-06T07:53:32;12.30;;;8.77;;
54201;SDS011;40108;53.152;5.844;2023-04-06T07:55:58;14.40;;;8.70;;
54201;SDS011;40108;53.152;5.844;2023-04-06T07:58:24;19.27;;;9.40;;
54201;SDS011;40108;53.152;5.844;2023-04-06T08:00:50;14.00;;;9.05;;
54201;SDS011;40108;53.152;5.844;2023-04-06T08:03:15;12.38;;;8.27;;
54201;SDS011;40108;53.152;5.844;2023-04-06T08:05:41;16.40;;;8.85;;
54201;SDS011;40108;53.152;5.844;2023-04-06T08:08:07;16.65;;;9.93;;
54201;SDS011;40108;53.152;5.844;2023-04-06T08:10:33;13.85;;;7.88;;
54201;SDS011;40108;53.152;5.844;2023-04-06T08:13:00;15.40;;;8.73;;
54201;SDS011;40108;53.152;5.844;2023-04-06T08:15:25;12.25;;;8.85;;
54201;SDS011;40108;53.152;5.844;2023-04-06T08:17:51;13.32;;;8.98;;
54201;SDS011;40108;53.152;5.844;2023-04-06T08:20:17;13.95;;;8.88;;
54201;SDS011;40108;53.152;5.844;2023-04-06T08:22:43;10.15;;;7.55;;
54201;SDS011;40108;53.152;5.844;2023-04-06T08:25:08;12.93;;;8.02;;
54201;SDS011;40108;53.152;5.844;2023-04-06T08:27:34;16.02;;;8.68;;
54201;SDS011;40108;53.152;5.844;2023-04-06T08:30:00;16.52;;;8.77;;
54201;SDS011;40108;53.152;5.844;2023-04-06T08:32:26;15.43;;;8.48;;
54201;SDS011;40108;53.152;5.844;2023-04-06T08:34:55;12.05;;;8.27;;
54201;SDS011;40108;53.152;5.844;2023-04-06T08:37:21;13.70;;;9.48;;
54201;SDS011;40108;53.152;5.844;2023-04-06T08:39:47;12.98;;;8.30;;
54201;SDS011;40108;53.152;5.844;2023-04-06T08:42:19;15.80;;;9.45;;
54201;SDS011;40108;53.152;5.844;2023-04-06T08:44:47;14.95;;;10.18;;
54201;SDS011;40108;53.152;5.844;2023-04-06T08:47:14;14.70;;;9.57;;
54201;SDS011;40108;53.152;5.844;2023-04-06T08:49:40;18.23;;;10.48;;
54201;SDS011;40108;53.152;5.844;2023-04-06T08:52:07;15.15;;;10.18;;
54201;SDS011;40108;53.152;5.844;2023-04-06T08:54:33;17.60;;;10.55;;
54201;SDS011;40108;53.152;5.844;2023-04-06T08:56:59;18.60;;;10.70;;
54201;SDS011;40108;53.152;5.844;2023-04-06T08:59:26;19.67;;;10.30;;
54201;SDS011;40108;53.152;5.844;2023-04-06T09:01:52;19.05;;;11.05;;
54201;SDS011;40108;53.152;5.844;2023-04-06T09:04:19;18.88;;;11.02;;
54201;SDS011;40108;53.152;5.844;2023-04-06T09:06:46;18.55;;;11.48;;
54201;SDS011;40108;53.152;5.844;2023-04-06T09:09:12;21.95;;;11.82;;
54201;SDS011;40108;53.152;5.844;2023-04-06T09:11:42;16.98;;;12.68;;
54201;SDS011;40108;53.152;5.844;2023-04-06T09:14:11;16.88;;;11.18;;
54201;SDS011;40108;53.152;5.844;2023-04-06T09:16:41;20.23;;;9.95;;
54201;SDS011;40108;53.152;5.844;2023-04-06T09:19:08;17.35;;;11.52;;
54201;SDS011;40108;53.152;5.844;2023-04-06T09:21:35;21.30;;;13.88;;
54201;SDS011;40108;53.152;5.844;2023-04-06T09:24:02;18.85;;;12.18;;
54201;SDS011;40108;53.152;5.844;2023-04-06T09:26:28;14.30;;;9.55;;
54201;SDS011;40108;53.152;5.844;2023-04-06T09:28:55;19.23;;;12.15;;
54201;SDS011;40108;53.152;5.844;2023-04-06T09:31:23;18.75;;;12.77;;
54201;SDS011;40108;53.152;5.844;2023-04-06T09:33:51;18.42;;;12.88;;
54201;SDS011;40108;53.152;5.844;2023-04-06T09:36:17;18.45;;;13.13;;
54201;SDS011;40108;53.152;5.844;2023-04-06T09:38:54;16.88;;;11.23;;
54201;SDS011;40108;53.152;5.844;2023-04-06T09:41:22;21.30;;;12.52;;
54201;SDS011;40108;53.152;5.844;2023-04-06T09:43:50;19.63;;;12.65;;
54201;SDS011;40108;53.152;5.844;2023-04-06T09:46:17;20.02;;;12.95;;
54201;SDS011;40108;53.152;5.844;2023-04-06T09:48:46;17.95;;;11.77;;
54201;SDS011;40108;53.152;5.844;2023-04-06T09:51:12;19.80;;;13.60;;
54201;SDS011;40108;53.152;5.844;2023-04-06T09:53:41;17.70;;;13.00;;
54201;SDS011;40108;53.152;5.844;2023-04-06T09:56:09;19.25;;;13.70;;
54201;SDS011;40108;53.152;5.844;2023-04-06T09:58:41;17.40;;;11.20;;
54201;SDS011;40108;53.152;5.844;2023-04-06T10:01:11;21.40;;;13.52;;
54201;SDS011;40108;53.152;5.844;2023-04-06T10:06:43;16.73;;;11.52;;
54201;SDS011;40108;53.152;5.844;2023-04-06T10:09:17;26.48;;;14.45;;
54201;SDS011;40108;53.152;5.844;2023-04-06T10:11:43;24.88;;;13.93;;
54201;SDS011;40108;53.152;5.844;2023-04-06T10:14:09;20.25;;;12.45;;
54201;SDS011;40108;53.152;5.844;2023-04-06T10:16:36;20.83;;;14.23;;
54201;SDS011;40108;53.152;5.844;2023-04-06T10:19:06;21.33;;;14.07;;
54201;SDS011;40108;53.152;5.844;2023-04-06T10:21:38;19.48;;;12.60;;
54201;SDS011;40108;53.152;5.844;2023-04-06T10:24:07;20.75;;;14.02;;
54201;SDS011;40108;53.152;5.844;2023-04-06T10:26:38;21.75;;;14.77;;
54201;SDS011;40108;53.152;5.844;2023-04-06T10:29:05;18.08;;;13.27;;
54201;SDS011;40108;53.152;5.844;2023-04-06T10:31:31;20.92;;;13.93;;
54201;SDS011;40108;53.152;5.844;2023-04-06T10:33:58;24.23;;;12.63;;
54201;SDS011;40108;53.152;5.844;2023-04-06T10:36:25;21.75;;;14.55;;
54201;SDS011;40108;53.152;5.844;2023-04-06T10:38:56;22.02;;;14.48;;
54201;SDS011;40108;53.152;5.844;2023-04-06T10:41:23;20.13;;;11.90;;
54201;SDS011;40108;53.152;5.844;2023-04-06T10:43:56;20.55;;;13.60;;
54201;SDS011;40108;53.152;5.844;2023-04-06T10:46:27;20.48;;;13.60;;
54201;SDS011;40108;53.152;5.844;2023-04-06T10:48:54;22.17;;;15.40;;
54201;SDS011;40108;53.152;5.844;2023-04-06T10:51:24;22.17;;;15.40;;
54201;SDS011;40108;53.152;5.844;2023-04-06T10:53:52;22.23;;;15.57;;
54201;SDS011;40108;53.152;5.844;2023-04-06T10:56:21;23.85;;;16.85;;
54201;SDS011;40108;53.152;5.844;2023-04-06T10:58:49;26.30;;;17.13;;
54201;SDS011;40108;53.152;5.844;2023-04-06T11:01:17;25.55;;;15.45;;
54201;SDS011;40108;53.152;5.844;2023-04-06T11:03:44;25.50;;;16.85;;
54201;SDS011;40108;53.152;5.844;2023-04-06T11:06:17;25.90;;;16.50;;
54201;SDS011;40108;53.152;5.844;2023-04-06T11:08:43;24.75;;;16.65;;
54201;SDS011;40108;53.152;5.844;2023-04-06T11:11:10;27.85;;;17.02;;
54201;SDS011;40108;53.152;5.844;2023-04-06T11:16:07;27.92;;;18.73;;
54201;SDS011;40108;53.152;5.844;2023-04-06T11:18:37;28.42;;;17.02;;
54201;SDS011;40108;53.152;5.844;2023-04-06T11:21:02;26.75;;;17.55;;
54201;SDS011;40108;53.152;5.844;2023-04-06T11:23:28;25.27;;;16.67;;
54201;SDS011;40108;53.152;5.844;2023-04-06T11:25:54;30.95;;;19.75;;
54201;SDS011;40108;53.152;5.844;2023-04-06T11:28:20;31.17;;;18.25;;
54201;SDS011;40108;53.152;5.844;2023-04-06T11:30:46;29.83;;;18.38;;
54201;SDS011;40108;53.152;5.844;2023-04-06T11:33:19;26.80;;;16.33;;
54201;SDS011;40108;53.152;5.844;2023-04-06T11:35:47;20.25;;;13.50;;
54201;SDS011;40108;53.152;5.844;2023-04-06T11:38:13;22.55;;;14.65;;
54201;SDS011;40108;53.152;5.844;2023-04-06T11:40:39;24.60;;;13.75;;
54201;SDS011;40108;53.152;5.844;2023-04-06T11:43:05;25.00;;;15.77;;
54201;SDS011;40108;53.152;5.844;2023-04-06T11:45:39;19.92;;;13.77;;
54201;SDS011;40108;53.152;5.844;2023-04-06T11:48:17;23.80;;;15.43;;
54201;SDS011;40108;53.152;5.844;2023-04-06T11:50:46;24.15;;;14.10;;
54201;SDS011;40108;53.152;5.844;2023-04-06T11:53:13;23.95;;;15.68;;
54201;SDS011;40108;53.152;5.844;2023-04-06T11:55:39;25.02;;;18.02;;
54201;SDS011;40108;53.152;5.844;2023-04-06T11:58:05;27.35;;;17.23;;
54201;SDS011;40108;53.152;5.844;2023-04-06T12:00:32;22.15;;;16.05;;
54201;SDS011;40108;53.152;5.844;2023-04-06T12:02:59;28.52;;;18.27;;
54201;SDS011;40108;53.152;5.844;2023-04-06T12:05:25;22.83;;;17.30;;
54201;SDS011;40108;53.152;5.844;2023-04-06T12:07:52;26.83;;;17.35;;
54201;SDS011;40108;53.152;5.844;2023-04-06T12:10:17;28.42;;;18.83;;
54201;SDS011;40108;53.152;5.844;2023-04-06T12:12:43;30.55;;;17.92;;
54201;SDS011;40108;53.152;5.844;2023-04-06T12:15:10;27.60;;;18.80;;
54201;SDS011;40108;53.152;5.844;2023-04-06T12:17:35;27.88;;;18.17;;
54201;SDS011;40108;53.152;5.844;2023-04-06T12:20:01;20.38;;;14.52;;
54201;SDS011;40108;53.152;5.844;2023-04-06T12:22:27;21.10;;;13.82;;
54201;SDS011;40108;53.152;5.844;2023-04-06T12:24:53;22.00;;;14.80;;
54201;SDS011;40108;53.152;5.844;2023-04-06T12:27:19;22.83;;;13.60;;
54201;SDS011;40108;53.152;5.844;2023-04-06T12:29:45;19.08;;;12.57;;
54201;SDS011;40108;53.152;5.844;2023-04-06T12:32:11;20.45;;;12.80;;
54201;SDS011;40108;53.152;5.844;2023-04-06T12:34:37;16.25;;;11.73;;
54201;SDS011;40108;53.152;5.844;2023-04-06T12:37:03;19.20;;;11.82;;
54201;SDS011;40108;53.152;5.844;2023-04-06T12:39:28;16.38;;;10.95;;
54201;SDS011;40108;53.152;5.844;2023-04-06T12:41:55;18.77;;;12.75;;
54201;SDS011;40108;53.152;5.844;2023-04-06T12:44:22;18.60;;;13.18;;
54201;SDS011;40108;53.152;5.844;2023-04-06T12:46:48;18.38;;;10.40;;
54201;SDS011;40108;53.152;5.844;2023-04-06T12:49:15;13.80;;;9.73;;
54201;SDS011;40108;53.152;5.844;2023-04-06T12:51:42;17.52;;;10.35;;
54201;SDS011;40108;53.152;5.844;2023-04-06T12:54:08;9.55;;;7.63;;
54201;SDS011;40108;53.152;5.844;2023-04-06T12:56:33;13.73;;;9.07;;
54201;SDS011;40108;53.152;5.844;2023-04-06T12:59:00;15.00;;;10.00;;
54201;SDS011;40108;53.152;5.844;2023-04-06T13:01:26;12.38;;;9.88;;
54201;SDS011;40108;53.152;5.844;2023-04-06T13:03:52;14.77;;;10.18;;
54201;SDS011;40108;53.152;5.844;2023-04-06T13:06:18;17.83;;;9.85;;
54201;SDS011;40108;53.152;5.844;2023-04-06T13:08:44;18.25;;;10.50;;
54201;SDS011;40108;53.152;5.844;2023-04-06T13:11:12;12.90;;;9.25;;
54201;SDS011;40108;53.152;5.844;2023-04-06T13:13:38;13.40;;;8.88;;
54201;SDS011;40108;53.152;5.844;2023-04-06T13:16:04;13.55;;;8.40;;
54201;SDS011;40108;53.152;5.844;2023-04-06T13:18:34;10.98;;;7.18;;
54201;SDS011;40108;53.152;5.844;2023-04-06T13:21:01;9.55;;;7.13;;
54201;SDS011;40108;53.152;5.844;2023-04-06T13:23:27;13.15;;;8.43;;
54201;SDS011;40108;53.152;5.844;2023-04-06T13:25:56;15.07;;;9.98;;
54201;SDS011;40108;53.152;5.844;2023-04-06T13:28:32;15.40;;;9.23;;
54201;SDS011;40108;53.152;5.844;2023-04-06T13:31:00;16.38;;;12.30;;
54201;SDS011;40108;53.152;5.844;2023-04-06T13:33:27;15.50;;;11.75;;
54201;SDS011;40108;53.152;5.844;2023-04-06T13:35:53;19.33;;;13.07;;
54201;SDS011;40108;53.152;5.844;2023-04-06T13:38:19;22.58;;;13.57;;
54201;SDS011;40108;53.152;5.844;2023-04-06T13:40:45;15.05;;;11.32;;
54201;SDS011;40108;53.152;5.844;2023-04-06T13:43:11;17.77;;;11.07;;
54201;SDS011;40108;53.152;5.844;2023-04-06T13:45:37;18.55;;;11.45;;
54201;SDS011;40108;53.152;5.844;2023-04-06T13:48:03;17.27;;;11.95;;
54201;SDS011;40108;53.152;5.844;2023-04-06T13:50:29;16.65;;;12.10;;
54201;SDS011;40108;53.152;5.844;2023-04-06T13:52:55;19.33;;;14.38;;
54201;SDS011;40108;53.152;5.844;2023-04-06T13:55:21;15.82;;;12.07;;
54201;SDS011;40108;53.152;5.844;2023-04-06T13:57:49;20.52;;;14.23;;
54201;SDS011;40108;53.152;5.844;2023-04-06T14:00:15;16.63;;;11.73;;
54201;SDS011;40108;53.152;5.844;2023-04-06T14:02:41;18.13;;;12.65;;
54201;SDS011;40108;53.152;5.844;2023-04-06T14:05:07;15.57;;;9.48;;
54201;SDS011;40108;53.152;5.844;2023-04-06T14:07:33;18.38;;;12.13;;
54201;SDS011;40108;53.152;5.844;2023-04-06T14:09:59;22.08;;;13.88;;
54201;SDS011;40108;53.152;5.844;2023-04-06T14:12:25;20.67;;;14.30;;
54201;SDS011;40108;53.152;5.844;2023-04-06T14:14:52;21.42;;;14.50;;
54201;SDS011;40108;53.152;5.844;2023-04-06T14:17:17;22.65;;;15.95;;
54201;SDS011;40108;53.152;5.844;2023-04-06T14:19:43;24.40;;;15.70;;
54201;SDS011;40108;53.152;5.844;2023-04-06T14:22:09;24.50;;;15.43;;
54201;SDS011;40108;53.152;5.844;2023-04-06T14:24:35;24.38;;;15.85;;
54201;SDS011;40108;53.152;5.844;2023-04-06T14:27:01;23.15;;;15.52;;
54201;SDS011;40108;53.152;5.844;2023-04-06T14:29:28;26.38;;;17.60;;
54201;SDS011;40108;53.152;5.844;2023-04-06T14:31:53;24.02;;;17.08;;
54201;SDS011;40108;53.152;5.844;2023-04-06T14:34:28;23.38;;;16.92;;